createdAt,value
2019-06-15T07:37:30.717Z,97.50
2019-06-15T07:40:00.285Z,97.60
2019-06-15T07:42:30.197Z,95.60
2019-06-15T07:44:59.821Z,94.40
2019-06-15T07:47:29.282Z,92.40
2019-06-15T07:49:58.769Z,89.80
2019-06-15T07:52:30.077Z,86.80
2019-06-15T07:54:59.808Z,88.20
2019-06-15T07:57:29.352Z,88.20
2019-06-15T08:00:02.054Z,88.20
2019-06-15T08:02:31.400Z,86.30
2019-06-15T08:05:00.981Z,86.10
2019-06-15T08:07:30.534Z,85.60
2019-06-15T08:10:01.476Z,83.50
2019-06-15T08:12:31.315Z,80.60
2019-06-15T08:15:00.891Z,80.60
2019-06-15T08:17:30.462Z,77.90
2019-06-15T08:19:59.993Z,77.50
2019-06-15T08:22:30.244Z,77.10
2019-06-15T08:24:59.510Z,76.30
2019-06-15T08:27:28.821Z,79.20
2019-06-15T08:29:58.231Z,78.20
2019-06-15T08:32:27.698Z,76.70
2019-06-15T08:34:57.088Z,79.40
2019-06-15T08:37:26.653Z,83.40
2019-06-15T08:39:56.168Z,87.40
2019-06-15T08:42:25.449Z,90.30
2019-06-15T08:44:54.907Z,91.10
2019-06-15T08:47:24.454Z,90.90
2019-06-15T08:49:53.821Z,85.50
2019-06-15T08:52:23.153Z,84.20
2019-06-15T08:54:52.533Z,84.70
2019-06-15T08:57:21.816Z,83.00
2019-06-15T08:59:51.129Z,84.90
2019-06-15T09:02:20.348Z,86.40
2019-06-15T09:04:49.863Z,82.90
2019-06-15T09:07:19.241Z,87.20
2019-06-15T09:09:49.548Z,85.80
2019-06-15T09:12:19.006Z,90.80
2019-06-15T09:14:48.424Z,93.00
2019-06-15T09:17:17.987Z,94.80
2019-06-15T09:19:47.601Z,97.00
2019-06-15T09:22:18.204Z,96.80
2019-06-15T09:24:47.717Z,96.80
2019-06-15T09:27:17.161Z,97.80
2019-06-15T09:54:41.375Z,99.90
2019-06-15T09:57:10.668Z,99.90
2019-06-15T09:59:43.195Z,99.90
2019-06-15T10:02:17.769Z,99.90
2019-06-15T10:04:53.722Z,99.90
2019-06-15T10:07:23.285Z,99.90
2019-06-15T10:09:52.795Z,99.90
2019-06-15T10:12:22.310Z,99.90
2019-06-15T10:14:51.783Z,99.90
2019-06-15T10:17:21.183Z,99.90
2019-06-15T10:19:50.784Z,98.90
2019-06-15T10:22:21.571Z,99.90
2019-06-15T10:24:52.200Z,99.90
2019-06-15T10:27:22.032Z,99.90
2019-06-15T10:29:54.554Z,99.90
2019-06-15T10:32:24.178Z,99.90
2019-06-15T10:34:53.911Z,99.90
2019-06-15T10:37:23.409Z,99.90
2019-06-15T10:39:52.924Z,99.90
2019-06-15T10:42:22.918Z,99.90
2019-06-15T10:44:52.485Z,99.90
2019-06-15T10:47:21.826Z,99.90
2019-06-15T10:49:51.491Z,99.90
2019-06-15T10:52:21.086Z,99.90
2019-06-15T10:54:50.693Z,99.90
2019-06-15T10:57:20.203Z,99.90
2019-06-15T10:59:57.489Z,99.90
2019-06-15T11:02:21.030Z,99.90
2019-06-15T11:04:50.687Z,99.90
2019-06-15T11:07:20.234Z,99.90
2019-06-15T11:09:49.774Z,99.90
2019-06-15T11:12:19.267Z,99.90
2019-06-15T11:14:49.218Z,99.90
2019-06-15T11:17:18.857Z,99.90
2019-06-15T11:19:48.476Z,99.90
2019-06-15T11:22:18.009Z,99.90
2019-06-15T11:24:47.621Z,99.90
2019-06-15T11:27:20.537Z,99.90
2019-06-15T11:29:50.170Z,99.90
2019-06-15T11:32:19.640Z,99.90
2019-06-15T11:34:49.308Z,99.90
2019-06-15T11:37:19.087Z,99.90
2019-06-15T11:39:48.688Z,99.90
2019-06-15T11:42:18.410Z,99.90
2019-06-15T11:44:47.884Z,99.90
2019-06-15T11:47:17.502Z,99.60
2019-06-15T11:49:47.046Z,99.20
2019-06-15T11:52:16.768Z,99.90
2019-06-15T11:54:46.693Z,99.90
2019-06-15T11:57:16.207Z,99.40
2019-06-15T11:59:45.719Z,99.00
2019-06-15T12:02:15.128Z,99.50
2019-06-15T12:04:57.651Z,98.80
2019-06-15T12:07:15.788Z,98.80
2019-06-15T12:09:45.202Z,98.70
2019-06-15T12:12:14.740Z,98.20
2019-06-15T12:14:44.296Z,98.30
2019-06-15T12:17:13.918Z,99.50
2019-06-15T12:19:43.682Z,98.50
2019-06-15T12:22:13.273Z,98.90
2019-06-15T12:24:42.788Z,99.80
2019-06-15T12:27:12.206Z,97.30
2019-06-15T12:29:41.537Z,96.70
2019-06-15T12:32:11.304Z,98.10
2019-06-15T12:34:41.149Z,97.10
2019-06-15T12:37:10.780Z,94.20
2019-06-15T12:39:42.105Z,95.30
2019-06-15T12:42:11.619Z,96.40
2019-06-15T12:44:41.284Z,96.40
2019-06-15T12:47:11.408Z,95.80
2019-06-15T12:49:41.044Z,94.80
2019-06-15T12:52:11.664Z,96.10
2019-06-15T12:54:41.337Z,97.10
2019-06-15T12:57:11.050Z,95.40
2019-06-15T12:59:40.351Z,95.00
2019-06-15T13:02:10.025Z,94.80
2019-06-15T13:04:41.249Z,95.30
2019-06-15T13:07:10.659Z,97.40
2019-06-15T13:09:40.156Z,95.30
2019-06-15T13:12:09.538Z,95.20
2019-06-15T13:14:38.950Z,96.40
2019-06-15T13:17:08.360Z,94.60
2019-06-15T13:19:37.928Z,96.40
2019-06-15T13:29:35.411Z,91.60
2019-06-15T13:32:06.040Z,92.00
2019-06-15T13:34:35.576Z,91.80
2019-06-15T13:37:05.310Z,91.60
2019-06-15T13:39:34.578Z,90.70
2019-06-15T13:42:03.926Z,92.10
2019-06-15T13:44:33.107Z,92.90
2019-06-15T13:47:02.256Z,92.10
2019-06-15T13:49:31.553Z,93.20
2019-06-15T13:52:00.707Z,93.60
2019-06-15T13:54:30.033Z,94.00
2019-06-15T13:56:59.280Z,94.70
2019-06-15T13:59:28.677Z,94.70
2019-06-15T14:01:57.921Z,94.30
2019-06-15T14:04:28.204Z,94.60
2019-06-15T14:06:59.312Z,95.40
2019-06-15T14:09:28.845Z,95.00
2019-06-15T14:11:58.287Z,92.90
2019-06-15T14:14:27.705Z,93.80
2019-06-15T14:16:57.216Z,94.30
2019-06-15T14:19:26.935Z,93.30
2019-06-15T14:21:56.570Z,93.10
2019-06-15T14:24:26.069Z,92.90
2019-06-15T14:26:55.707Z,92.70
2019-06-15T14:29:25.293Z,93.20
2019-06-15T14:31:54.826Z,94.20
2019-06-15T14:34:24.386Z,93.80
2019-06-15T14:36:54.010Z,93.20
2019-06-15T14:39:23.676Z,94.10
2019-06-15T14:41:53.098Z,93.60
2019-06-15T14:44:22.723Z,92.60
2019-06-15T14:46:52.241Z,92.60
2019-06-15T14:49:21.938Z,90.90
2019-06-15T14:51:51.537Z,92.10
2019-06-15T14:54:20.921Z,92.20
2019-06-15T14:56:51.539Z,92.60
2019-06-15T14:59:21.142Z,92.70
2019-06-15T15:02:06.275Z,92.60
2019-06-15T15:04:22.392Z,91.50
2019-06-15T15:06:53.279Z,90.50
2019-06-15T15:09:22.828Z,91.20
2019-06-15T15:11:52.382Z,91.80
2019-06-15T15:14:21.868Z,92.60
2019-06-15T15:16:51.467Z,92.20
2019-06-15T15:19:21.236Z,92.20
2019-06-15T15:21:53.580Z,92.80
2019-06-15T15:24:23.199Z,92.20
2019-06-15T15:26:52.597Z,93.00
2019-06-15T15:29:22.374Z,91.00
2019-06-15T15:31:57.190Z,88.20
2019-06-15T15:34:26.127Z,89.10
2019-06-15T15:36:56.749Z,90.10
2019-06-15T15:39:27.363Z,91.10
2019-06-15T15:41:56.982Z,90.20
2019-06-15T15:44:27.060Z,90.30
2019-06-15T15:46:57.110Z,90.60
2019-06-15T15:49:26.944Z,90.30
2019-06-15T15:51:56.733Z,90.10
2019-06-15T15:54:26.817Z,90.20
2019-06-15T15:56:56.380Z,90.40
2019-06-15T15:59:26.171Z,89.00
2019-06-15T16:01:56.676Z,90.10
2019-06-15T16:04:26.512Z,90.80
2019-06-15T16:06:56.260Z,87.20
2019-06-15T16:09:27.119Z,87.20
2019-06-15T16:11:57.229Z,87.90
2019-06-15T16:14:27.937Z,89.70
2019-06-15T16:16:57.636Z,86.50
2019-06-15T16:19:27.798Z,89.90
2019-06-15T16:21:57.404Z,86.50
2019-06-15T16:24:27.460Z,88.60
2019-06-15T16:26:57.067Z,88.20
2019-06-15T16:29:26.720Z,89.50
2019-06-15T16:31:56.536Z,90.70
2019-06-15T16:34:26.991Z,90.40
2019-06-15T16:36:57.116Z,91.10
2019-06-15T16:39:26.975Z,90.70
2019-06-15T16:41:57.683Z,90.70
2019-06-15T16:44:27.182Z,90.10
2019-06-15T16:46:59.191Z,90.80
2019-06-15T16:49:36.281Z,90.70
2019-06-15T16:52:06.269Z,90.20
2019-06-15T16:54:36.188Z,90.20
2019-06-15T16:57:05.944Z,90.60
2019-06-15T16:59:36.405Z,89.30
2019-06-15T17:02:06.573Z,90.10
2019-06-15T17:04:36.483Z,90.60
2019-06-15T17:07:07.054Z,90.60
2019-06-15T17:09:36.904Z,90.60
2019-06-15T17:12:06.639Z,90.50
2019-06-15T17:14:36.546Z,90.20
2019-06-15T17:17:06.012Z,90.50
2019-06-15T17:19:36.274Z,90.00
2019-06-15T17:22:14.718Z,90.40
2019-06-15T17:24:37.154Z,90.20
2019-06-15T17:27:06.824Z,90.90
2019-06-15T17:29:36.360Z,91.40
2019-06-15T17:32:06.325Z,92.20
2019-06-15T17:34:36.521Z,91.70
2019-06-15T17:37:06.787Z,92.20
2019-06-15T17:39:37.533Z,93.00
2019-06-15T17:42:22.144Z,93.70
2019-06-15T17:44:46.017Z,94.40
2019-06-15T17:47:11.900Z,94.40
2019-06-15T17:49:41.647Z,95.00
2019-06-15T17:52:11.210Z,94.70
2019-06-15T17:54:40.785Z,95.90
2019-06-15T17:57:10.281Z,95.90
2019-06-15T17:59:39.588Z,95.40
2019-06-15T18:02:09.097Z,96.00
2019-06-15T18:04:38.562Z,96.00
2019-06-15T18:07:08.077Z,96.30
2019-06-15T19:09:35.549Z,99.90
2019-06-15T19:12:07.068Z,99.90
2019-06-15T19:14:36.503Z,99.90
2019-06-15T19:17:06.153Z,99.90
2019-06-15T19:19:37.741Z,99.90
2019-06-15T19:22:06.795Z,99.90
2019-06-15T19:24:36.793Z,99.90
2019-06-15T19:27:08.230Z,99.90
2019-06-15T19:29:37.493Z,99.90
2019-06-15T19:32:08.176Z,99.90
2019-06-15T19:34:47.193Z,99.90
2019-06-15T19:37:09.090Z,99.90
2019-06-15T19:39:38.571Z,99.90
2019-06-15T19:42:08.319Z,99.90
2019-06-15T19:59:36.636Z,99.90
2019-06-15T20:02:06.831Z,99.90
2019-06-15T20:04:37.497Z,99.90
2019-06-15T20:07:07.547Z,99.90
2019-06-15T20:09:39.160Z,99.90
2019-06-15T20:12:18.263Z,99.90
2019-06-15T20:14:39.711Z,99.90
2019-06-15T20:17:09.012Z,99.90
2019-06-15T20:19:38.355Z,99.90
2019-06-15T20:22:07.771Z,99.90
